• Join FlightAware (Why Join?)
  • Login
  • US Flag 
12:05PM EDT


 

Airport Tracker/Info


-or-


 

Live Flight TrackerFlight Track Log ✈ N900TG ✈ 03-Jun-2013 ✈ 64OG - KUAO

Flight Track Log - Related Links

Times and Time Zones

All times are in EDT time to prevent confusion due to time zone crossing. See the N900TG flight status page for this flight to view local times or setup timezone preferences in your user account.

Time Position Orientation Groundspeed Altitude Reporting Facility
EDT Latitude Longitude Course Direction KTS MPH feet Rate Location/Type
12:37PM 44.5144 -120.0028 281° West 232 267 10,900  Level Seattle Center
12:38PM 44.5356 -120.1089 286° West 276 318 13,400 2,580 Climbing Seattle Center
12:39PM 44.5578 -120.2308 284° West 312 359 16,200 2,640 Climbing Seattle Center
12:40PM 44.5806 -120.3583 284° West 331 381 18,900 1,800 Climbing Seattle Center
12:41PM 44.6033 -120.4822 285° West 349 402 20,000 540 Climbing Seattle Center
12:42PM 44.6328 -120.6478 284° West 367 422 20,000  Level Seattle Center
12:43PM 44.6143 -120.5324 281° West  Level FlightAware Approximate
12:43PM 44.6561 -120.7756 284° West 383 441 20,000  Level Seattle Center
12:44PM 44.6886 -120.9200 288° West 386 444 20,000  Level Seattle Center
12:45PM 44.7331 -121.0592 294° West 389 448 20,000  Level Seattle Center
12:46PM 44.7761 -121.1994 293° West 390 449 20,000  Level Seattle Center
12:47PM 44.8283 -121.3656 294° West 388 447 20,000 -540 Level Seattle Center
12:48PM 44.8703 -121.5025 293° West 383 441 19,000 -1,380 Descending Seattle Center
12:50PM 44.9097 -121.6336 293° West 370 426 17,200 -1,980 Descending Seattle Center
12:51PM 44.9497 -121.7653 293° West 366 421 15,000 -2,340 Descending Seattle Center
12:51PM 44.9647 -121.8194 291° West 360 414 14,100 -1,980 Descending Seattle Center
12:52PM 44.9889 -121.8911 296° West 354 407 13,000 -2,160 Descending Seattle Center
12:53PM 45.0289 -122.0200 294° West 343 395 10,500 -1,740 Descending Seattle Center
12:54PM 45.0586 -122.1231 292° West 302 348 9,500 -1,440 Descending Seattle Center
12:55PM 45.0861 -122.2158 293° West 262 302 7,600 -1,440 Descending Seattle Center
12:56PM 45.1136 -122.3150 291° West 265 305 6,600 -780 Descending Seattle Center
12:57PM 45.1436 -122.4192 292° West 268 308 6,100 -840 Descending Seattle Center
12:58PM 45.1700 -122.5042 294° West 264 304 5,000 -1,260 Descending Seattle Center
12:59PM 45.1797 -122.6053 278° West 263 303 3,600 -1,500 Descending Seattle Center
01:00PM 45.1883 -122.7122 277° West 255 293 2,000 -1,620 Descending Seattle Center